createdAt,value
2023-04-11T00:01:33.019Z,3.71
2023-04-11T00:04:01.411Z,3.66
2023-04-11T00:06:29.690Z,3.65
2023-04-11T00:08:58.240Z,3.61
2023-04-11T00:11:26.649Z,3.55
2023-04-11T00:13:58.878Z,3.52
2023-04-11T00:16:27.342Z,3.55
2023-04-11T00:18:57.470Z,3.57
2023-04-11T00:21:26.213Z,3.51
2023-04-11T00:23:54.811Z,3.41
2023-04-11T00:26:22.868Z,3.28
2023-04-11T00:28:51.177Z,3.21
2023-04-11T00:31:19.567Z,3.18
2023-04-11T00:33:47.662Z,3.21
2023-04-11T00:36:16.584Z,3.18
2023-04-11T00:38:46.717Z,3.20
2023-04-11T00:41:14.903Z,3.18
2023-04-11T00:43:43.098Z,3.17
2023-04-11T00:46:11.434Z,3.14
2023-04-11T00:48:40.238Z,3.15
2023-04-11T00:51:08.518Z,3.12
2023-04-11T00:53:38.291Z,3.11
2023-04-11T00:56:07.139Z,3.11
2023-04-11T00:58:38.133Z,3.09
2023-04-11T01:01:09.302Z,3.07
2023-04-11T01:03:41.515Z,3.10
2023-04-11T01:06:13.137Z,3.15
2023-04-11T01:08:43.675Z,3.20
2023-04-11T01:11:12.881Z,3.22
2023-04-11T01:13:42.362Z,3.27
2023-04-11T01:16:11.461Z,3.28
2023-04-11T01:18:39.758Z,3.30
2023-04-11T01:21:10.136Z,3.31
2023-04-11T01:23:38.463Z,3.34
2023-04-11T01:26:07.683Z,3.34
2023-04-11T01:28:36.053Z,3.33
2023-04-11T01:31:05.042Z,3.33
2023-04-11T01:33:33.344Z,3.37
2023-04-11T01:36:01.660Z,3.33
2023-04-11T01:38:29.977Z,3.34
2023-04-11T01:40:59.230Z,3.38
2023-04-11T01:43:27.445Z,3.32
2023-04-11T01:45:55.918Z,3.30
2023-04-11T01:48:24.237Z,3.25
2023-04-11T01:50:53.355Z,3.28
2023-04-11T01:53:21.732Z,3.32
2023-04-11T01:55:49.951Z,3.29
2023-04-11T01:58:18.091Z,3.24
2023-04-11T02:00:46.523Z,3.22
2023-04-11T02:03:14.963Z,3.19
2023-04-11T02:05:43.801Z,3.21
2023-04-11T02:08:12.594Z,3.21
2023-04-11T02:10:40.860Z,3.18
2023-04-11T02:13:09.763Z,3.08
2023-04-11T02:15:38.019Z,3.06
2023-04-11T02:18:07.236Z,3.03
2023-04-11T02:20:40.710Z,3.02
2023-04-11T02:23:09.012Z,3.02
2023-04-11T02:25:39.059Z,3.00
2023-04-11T02:28:08.205Z,3.04
2023-04-11T02:30:36.773Z,3.05
2023-04-11T02:33:05.100Z,3.01
2023-04-11T02:35:34.736Z,2.97
2023-04-11T02:38:02.887Z,2.95
2023-04-11T02:40:31.671Z,2.97
2023-04-11T02:43:01.328Z,2.97
2023-04-11T02:45:31.100Z,2.93
2023-04-11T02:47:59.284Z,2.83
2023-04-11T02:50:27.887Z,2.79
2023-04-11T02:52:56.237Z,2.76
2023-04-11T02:55:27.251Z,2.66
2023-04-11T02:57:55.663Z,2.57
2023-04-11T03:00:25.186Z,2.45
2023-04-11T03:03:02.873Z,2.33
2023-04-11T03:05:31.769Z,2.28
2023-04-11T03:07:59.832Z,2.25
2023-04-11T03:10:29.315Z,2.19
2023-04-11T03:12:57.722Z,2.17
2023-04-11T03:15:27.125Z,2.19
2023-04-11T03:17:56.195Z,2.16
2023-04-11T03:20:25.011Z,2.06
2023-04-11T03:22:54.558Z,1.99
2023-04-11T03:25:22.818Z,1.94
2023-04-11T03:27:51.898Z,1.87
2023-04-11T03:30:20.306Z,1.80
2023-04-11T03:32:49.403Z,1.80
2023-04-11T03:35:20.728Z,1.83
2023-04-11T03:37:50.760Z,1.88
2023-04-11T03:40:19.237Z,1.96
2023-04-11T03:42:52.077Z,1.99
2023-04-11T03:45:23.074Z,2.03
2023-04-11T03:47:52.287Z,2.09
2023-04-11T03:50:22.478Z,2.13
2023-04-11T03:52:51.887Z,2.15
2023-04-11T03:55:21.255Z,2.17
2023-04-11T03:57:49.767Z,2.23
2023-04-11T04:00:20.771Z,2.28
2023-04-11T04:02:57.187Z,2.35
2023-04-11T04:05:26.210Z,2.39
2023-04-11T04:07:55.918Z,2.42
2023-04-11T04:10:32.057Z,2.47
2023-04-11T04:13:00.530Z,2.47
2023-04-11T04:15:36.793Z,2.53
2023-04-11T04:18:05.300Z,2.56
2023-04-11T04:21:00.011Z,2.64
2023-04-11T04:23:30.205Z,2.68
2023-04-11T04:26:13.348Z,2.67
2023-04-11T04:28:47.550Z,2.72
2023-04-11T04:31:22.622Z,2.73
2023-04-11T04:33:52.070Z,2.74
2023-04-11T04:36:25.280Z,2.80
2023-04-11T04:38:54.689Z,2.86
2023-04-11T04:41:23.910Z,2.93
2023-04-11T04:43:58.675Z,2.97
2023-04-11T04:46:44.829Z,3.04
2023-04-11T04:49:13.311Z,3.11
2023-04-11T04:51:41.784Z,3.13
2023-04-11T04:54:10.286Z,3.24
2023-04-11T04:56:38.746Z,3.29
2023-04-11T04:59:08.291Z,3.37
2023-04-11T05:01:40.280Z,3.46
2023-04-11T05:04:09.471Z,3.54
2023-04-11T05:06:46.145Z,3.63
2023-04-11T05:09:15.011Z,3.73
2023-04-11T05:11:43.767Z,3.82
2023-04-11T05:14:11.928Z,3.93
2023-04-11T05:16:42.569Z,4.02
2023-04-11T05:19:11.360Z,4.14
2023-04-11T05:21:42.759Z,4.26
2023-04-11T05:24:12.140Z,4.40
2023-04-11T05:26:40.819Z,5.20
2023-04-11T05:29:11.060Z,6.72
2023-04-11T05:31:39.274Z,8.04
2023-04-11T05:34:07.909Z,9.20
2023-04-11T05:36:37.106Z,10.05
2023-04-11T05:39:06.238Z,11.02
2023-04-11T05:41:34.405Z,11.71
2023-04-11T05:44:05.528Z,12.52
2023-04-11T05:46:36.976Z,13.14
2023-04-11T05:49:05.977Z,13.49
2023-04-11T05:51:34.462Z,13.99
2023-04-11T05:54:02.889Z,14.38
2023-04-11T05:56:31.327Z,14.58
2023-04-11T05:58:59.577Z,14.79
2023-04-11T06:01:28.801Z,15.27
2023-04-11T06:03:57.833Z,15.69
2023-04-11T06:06:27.765Z,15.88
2023-04-11T06:08:56.102Z,16.46
2023-04-11T06:11:27.546Z,16.60
2023-04-11T06:13:55.994Z,16.58
2023-04-11T06:16:24.706Z,16.92
2023-04-11T06:18:53.037Z,17.30
2023-04-11T06:21:21.361Z,17.12
2023-04-11T06:23:49.610Z,16.93
2023-04-11T06:26:18.035Z,17.12
2023-04-11T06:28:46.312Z,17.34
2023-04-11T06:31:14.724Z,17.35
2023-04-11T06:33:43.033Z,17.27
2023-04-11T06:36:11.873Z,16.96
2023-04-11T06:38:40.860Z,17.03
2023-04-11T06:41:08.985Z,17.30
2023-04-11T06:43:37.223Z,17.03
2023-04-11T06:46:06.020Z,17.34
2023-04-11T06:48:34.695Z,17.90
2023-04-11T06:51:03.114Z,17.57
2023-04-11T06:53:31.392Z,17.21
2023-04-11T06:56:00.966Z,17.39
2023-04-11T06:58:29.240Z,16.95
2023-04-11T07:00:57.722Z,17.18
2023-04-11T07:03:26.561Z,17.58
2023-04-11T07:05:55.098Z,17.45
2023-04-11T07:08:23.376Z,17.18
2023-04-11T07:10:51.681Z,17.52
2023-04-11T07:13:21.426Z,17.37
2023-04-11T07:15:49.653Z,17.29
2023-04-11T07:18:17.930Z,16.68
2023-04-11T07:20:46.741Z,16.72
2023-04-11T07:23:15.300Z,16.48
2023-04-11T07:25:45.230Z,16.38
2023-04-11T07:28:13.393Z,16.44
2023-04-11T07:30:42.721Z,16.24
2023-04-11T07:33:11.175Z,15.85
2023-04-11T07:35:39.534Z,16.10
2023-04-11T07:38:10.194Z,16.02
2023-04-11T07:40:38.578Z,15.67
2023-04-11T07:43:06.900Z,15.49
2023-04-11T07:45:36.582Z,15.43
2023-04-11T07:48:05.468Z,15.39
2023-04-11T07:50:33.729Z,15.73
2023-04-11T07:53:02.613Z,15.90
2023-04-11T07:55:30.969Z,15.46
2023-04-11T07:57:59.444Z,14.93
2023-04-11T08:00:29.031Z,14.97
2023-04-11T08:02:59.279Z,15.43
2023-04-11T08:05:28.085Z,15.30
2023-04-11T08:07:57.180Z,15.53
2023-04-11T08:10:25.782Z,15.36
2023-04-11T08:12:55.624Z,15.25
2023-04-11T08:15:23.732Z,15.05
2023-04-11T08:17:56.386Z,15.07
2023-04-11T08:20:25.190Z,14.94
2023-04-11T08:22:53.637Z,14.83
2023-04-11T08:25:25.300Z,14.65
2023-04-11T08:27:53.573Z,14.87
2023-04-11T08:30:21.809Z,15.02
2023-04-11T08:32:50.257Z,15.01
2023-04-11T08:35:18.717Z,15.21
2023-04-11T08:37:47.109Z,15.35
2023-04-11T08:40:16.705Z,15.58
2023-04-11T08:42:45.956Z,15.69
2023-04-11T08:45:14.287Z,15.12
2023-04-11T08:47:45.282Z,15.35
2023-04-11T08:50:14.153Z,15.40
2023-04-11T08:52:45.179Z,15.35
2023-04-11T08:55:13.747Z,15.76
2023-04-11T08:57:42.692Z,15.80
2023-04-11T09:00:14.600Z,15.88
2023-04-11T09:03:05.798Z,15.83
2023-04-11T09:05:35.650Z,16.69
2023-04-11T09:08:09.214Z,17.03
2023-04-11T09:10:39.881Z,17.35
2023-04-11T09:13:26.006Z,17.14
2023-04-11T09:16:12.371Z,17.29
2023-04-11T09:18:46.375Z,17.03
2023-04-11T09:21:17.126Z,17.19
2023-04-11T09:23:45.606Z,17.18
2023-04-11T09:26:29.755Z,17.12
2023-04-11T09:28:58.416Z,17.24
2023-04-11T09:31:45.140Z,17.82
2023-04-11T09:34:13.841Z,17.93
2023-04-11T09:36:42.645Z,17.44
2023-04-11T09:39:18.284Z,17.56
2023-04-11T09:41:46.773Z,16.95
2023-04-11T09:44:15.057Z,16.90
2023-04-11T09:46:59.824Z,16.42
2023-04-11T09:49:29.016Z,15.97
2023-04-11T09:51:59.755Z,15.62
2023-04-11T09:54:29.390Z,15.54
2023-04-11T09:56:59.479Z,15.82
2023-04-11T09:59:29.382Z,15.67
2023-04-11T10:01:58.994Z,15.72
2023-04-11T10:04:28.971Z,15.76
2023-04-11T10:07:09.168Z,15.77
2023-04-11T10:09:41.103Z,15.61
2023-04-11T10:12:09.446Z,15.45
2023-04-11T10:14:37.795Z,15.48
2023-04-11T10:17:23.327Z,15.44
2023-04-11T10:19:58.804Z,15.40
2023-04-11T10:22:43.546Z,15.29
2023-04-11T10:25:19.699Z,14.80
2023-04-11T10:28:04.129Z,14.37
2023-04-11T10:30:42.265Z,13.94
2023-04-11T10:33:20.506Z,13.78
2023-04-11T10:36:05.708Z,13.49
2023-04-11T10:38:52.116Z,13.32
2023-04-11T10:41:23.323Z,13.39
2023-04-11T10:43:52.579Z,13.42
2023-04-11T10:46:21.910Z,13.34
2023-04-11T10:49:00.677Z,13.07
2023-04-11T10:51:31.686Z,13.16
2023-04-11T10:54:01.527Z,13.21
2023-04-11T10:56:52.777Z,13.37
2023-04-11T10:59:34.600Z,13.58
2023-04-11T11:02:03.686Z,13.84
2023-04-11T11:04:33.571Z,13.97
2023-04-11T11:07:07.206Z,13.93
2023-04-11T11:09:35.668Z,13.73
2023-04-11T11:12:08.945Z,13.83
2023-04-11T11:14:38.390Z,13.78
2023-04-11T11:17:07.842Z,13.68
2023-04-11T11:19:36.593Z,13.75
2023-04-11T11:22:06.372Z,13.68
2023-04-11T11:24:34.700Z,13.68
2023-04-11T11:27:03.079Z,13.72
2023-04-11T11:29:38.269Z,13.76
2023-04-11T11:32:07.369Z,13.67
2023-04-11T11:34:36.269Z,13.61
2023-04-11T11:37:04.977Z,13.55
2023-04-11T11:39:34.459Z,13.65
2023-04-11T11:42:03.615Z,13.61
2023-04-11T11:44:32.226Z,13.59
2023-04-11T11:47:17.395Z,13.58
2023-04-11T11:49:51.261Z,13.39
2023-04-11T11:52:37.070Z,13.29
2023-04-11T11:55:11.292Z,13.38
2023-04-11T11:57:46.826Z,13.78
2023-04-11T12:00:23.772Z,14.17
2023-04-11T12:02:53.359Z,14.30
2023-04-11T12:05:24.983Z,14.24
2023-04-11T12:07:55.259Z,14.30
2023-04-11T12:10:23.839Z,14.46
2023-04-11T12:12:53.857Z,14.63
2023-04-11T12:15:24.546Z,14.51
2023-04-11T12:17:54.285Z,14.40
2023-04-11T12:20:24.334Z,14.47
2023-04-11T12:22:54.633Z,14.44
2023-04-11T12:25:26.137Z,14.39
2023-04-11T12:27:54.370Z,14.57
2023-04-11T12:30:22.965Z,14.80
2023-04-11T12:32:51.273Z,14.95
2023-04-11T12:35:19.633Z,15.08
2023-04-11T12:37:47.907Z,14.97
2023-04-11T12:40:16.501Z,14.67
2023-04-11T12:42:56.433Z,14.51
2023-04-11T12:45:26.403Z,14.46
2023-04-11T12:47:54.858Z,14.27
2023-04-11T12:50:24.306Z,14.14
2023-04-11T12:52:53.241Z,14.10
2023-04-11T12:55:21.942Z,14.03
2023-04-11T12:57:50.420Z,13.88
2023-04-11T13:00:19.054Z,13.76
2023-04-11T13:02:48.817Z,13.78
2023-04-11T13:05:17.971Z,13.73
2023-04-11T13:07:46.821Z,13.72
2023-04-11T13:10:16.379Z,13.76
2023-04-11T13:12:46.013Z,13.79
2023-04-11T13:15:16.900Z,13.97
2023-04-11T13:17:45.795Z,14.23
2023-04-11T13:20:14.643Z,14.49
2023-04-11T13:22:43.472Z,14.43
2023-04-11T13:25:12.662Z,14.47
2023-04-11T13:27:42.440Z,14.58
2023-04-11T13:30:11.633Z,14.64
2023-04-11T13:32:40.169Z,14.61
2023-04-11T13:35:09.243Z,14.63
2023-04-11T13:37:37.716Z,14.75
2023-04-11T13:40:11.428Z,14.72
2023-04-11T13:42:39.806Z,14.73
2023-04-11T13:45:08.868Z,14.65
2023-04-11T13:47:38.796Z,14.61
2023-04-11T13:50:09.272Z,14.55
2023-04-11T13:52:37.919Z,14.49
2023-04-11T13:55:07.070Z,14.39
2023-04-11T13:57:35.313Z,14.31
2023-04-11T14:00:11.924Z,14.22
2023-04-11T14:02:41.718Z,14.06
2023-04-11T14:05:11.671Z,13.93
2023-04-11T14:07:40.861Z,13.85
2023-04-11T14:10:09.523Z,13.60
2023-04-11T14:12:38.001Z,13.34
2023-04-11T14:15:08.014Z,13.09
2023-04-11T14:17:36.559Z,12.94
2023-04-11T14:20:07.086Z,12.81
2023-04-11T14:22:36.135Z,12.78
2023-04-11T14:25:05.821Z,12.84
2023-04-11T14:27:34.042Z,12.90
2023-04-11T14:30:02.411Z,13.00
2023-04-11T14:32:30.798Z,13.09
2023-04-11T14:35:01.973Z,13.06
2023-04-11T14:37:34.690Z,13.00
2023-04-11T14:40:08.102Z,13.02
2023-04-11T14:42:37.388Z,12.89
2023-04-11T14:45:06.631Z,12.64
2023-04-11T14:47:35.316Z,12.40
2023-04-11T14:50:03.691Z,12.41
2023-04-11T14:52:31.937Z,12.25
2023-04-11T14:55:00.190Z,12.20
2023-04-11T14:57:49.276Z,12.10
2023-04-11T15:00:22.642Z,12.05
2023-04-11T15:02:54.531Z,11.99
2023-04-11T15:05:23.832Z,11.91
2023-04-11T15:07:53.424Z,11.83
2023-04-11T15:10:24.548Z,11.73
2023-04-11T15:12:53.496Z,11.68
2023-04-11T15:15:21.889Z,11.63
2023-04-11T15:18:25.167Z,11.52
2023-04-11T15:20:54.259Z,11.33
2023-04-11T15:23:23.396Z,11.12
2023-04-11T15:26:05.422Z,10.92
2023-04-11T15:28:38.907Z,10.77
2023-04-11T15:31:09.236Z,10.74
2023-04-11T15:33:38.503Z,10.63
2023-04-11T15:36:07.439Z,10.56
2023-04-11T15:38:36.825Z,10.52
2023-04-11T15:41:05.989Z,10.47
2023-04-11T15:43:34.147Z,10.45
2023-04-11T15:46:06.869Z,10.42
2023-04-11T15:48:35.226Z,10.42
2023-04-11T15:51:10.970Z,10.41
2023-04-11T15:53:39.218Z,10.40
2023-04-11T15:56:08.426Z,10.39
2023-04-11T15:58:36.609Z,10.33
2023-04-11T16:01:05.539Z,10.38
2023-04-11T16:03:33.891Z,10.41
2023-04-11T16:06:02.857Z,10.42
2023-04-11T16:08:31.283Z,10.46
2023-04-11T16:10:59.463Z,10.47
2023-04-11T16:13:27.712Z,10.49
2023-04-11T16:15:56.382Z,10.50
2023-04-11T16:18:24.670Z,10.53
2023-04-11T16:20:52.794Z,10.55
2023-04-11T16:23:21.362Z,10.49
2023-04-11T16:25:49.663Z,10.53
2023-04-11T16:28:17.816Z,10.54
2023-04-11T16:30:46.125Z,10.48
2023-04-11T16:33:14.375Z,10.44
2023-04-11T16:35:42.711Z,10.38
2023-04-11T16:38:11.038Z,10.37
2023-04-11T16:40:39.295Z,10.32
2023-04-11T16:43:07.490Z,10.31
2023-04-11T16:45:36.026Z,10.23
2023-04-11T16:48:06.066Z,10.15
2023-04-11T16:50:34.323Z,10.12
2023-04-11T16:53:02.765Z,10.11
2023-04-11T16:55:31.056Z,10.06
2023-04-11T16:57:59.208Z,10.07
2023-04-11T17:00:29.586Z,10.03
2023-04-11T17:02:59.044Z,10.04
2023-04-11T17:05:27.532Z,10.04
2023-04-11T17:07:56.143Z,9.97
2023-04-11T17:10:24.285Z,9.97
2023-04-11T17:12:54.304Z,9.91
2023-04-11T17:15:22.582Z,9.88
2023-04-11T17:17:51.116Z,9.84
2023-04-11T17:20:21.122Z,9.78
2023-04-11T17:22:49.975Z,9.72
2023-04-11T17:25:18.457Z,9.70
2023-04-11T17:27:46.704Z,9.63
2023-04-11T17:30:14.925Z,9.55
2023-04-11T17:32:43.210Z,9.52
2023-04-11T17:35:11.465Z,9.47
2023-04-11T17:37:40.054Z,9.44
2023-04-11T17:40:12.796Z,9.38
2023-04-11T17:42:41.637Z,9.33
2023-04-11T17:45:18.115Z,9.29
2023-04-11T17:47:47.844Z,9.25
2023-04-11T17:50:18.577Z,9.21
2023-04-11T17:52:47.756Z,9.14
2023-04-11T17:55:19.128Z,9.09
2023-04-11T17:57:49.244Z,9.02
2023-04-11T18:00:23.247Z,9.00
2023-04-11T18:02:54.688Z,8.94
2023-04-11T18:05:25.848Z,8.89
2023-04-11T18:07:58.954Z,8.85
2023-04-11T18:10:29.372Z,8.84
2023-04-11T18:12:58.780Z,8.85
2023-04-11T18:15:28.167Z,8.85
2023-04-11T18:17:56.718Z,8.84
2023-04-11T18:20:25.651Z,8.82
2023-04-11T18:22:56.539Z,8.77
2023-04-11T18:25:25.097Z,8.69
2023-04-11T18:27:53.645Z,8.66
2023-04-11T18:30:22.094Z,8.60
2023-04-11T18:32:54.006Z,8.59
2023-04-11T18:35:24.302Z,8.53
2023-04-11T18:37:54.333Z,8.47
2023-04-11T18:40:22.974Z,8.47
2023-04-11T18:42:52.986Z,8.47
2023-04-11T18:45:22.726Z,8.43
2023-04-11T18:47:51.690Z,8.45
2023-04-11T18:50:20.463Z,8.43
2023-04-11T18:52:53.864Z,8.36
2023-04-11T18:55:25.394Z,8.31
2023-04-11T18:57:57.224Z,8.26
2023-04-11T19:00:28.969Z,8.19
2023-04-11T19:02:57.940Z,8.13
2023-04-11T19:05:26.895Z,8.06
2023-04-11T19:07:56.308Z,7.99
2023-04-11T19:10:24.886Z,7.88
2023-04-11T19:12:53.378Z,7.77
2023-04-11T19:15:21.574Z,7.70
2023-04-11T19:17:50.014Z,7.68
2023-04-11T19:20:20.490Z,7.66
2023-04-11T19:22:48.743Z,7.62
2023-04-11T19:25:17.637Z,7.59
2023-04-11T19:27:47.354Z,7.57
2023-04-11T19:30:15.731Z,7.54
2023-04-11T19:32:46.279Z,7.49
2023-04-11T19:35:15.449Z,7.44
2023-04-11T19:37:43.730Z,7.44
2023-04-11T19:40:15.377Z,7.44
2023-04-11T19:42:45.107Z,7.43
2023-04-11T19:45:13.480Z,7.42
2023-04-11T19:47:42.252Z,7.39
2023-04-11T19:50:15.366Z,7.36
2023-04-11T19:52:44.265Z,7.33
2023-04-11T19:55:12.944Z,7.28
2023-04-11T19:57:43.798Z,7.22
2023-04-11T20:00:14.369Z,7.18
2023-04-11T20:02:46.105Z,7.18
2023-04-11T20:05:17.271Z,7.20
2023-04-11T20:07:46.761Z,7.24
2023-04-11T20:10:16.400Z,7.25
2023-04-11T20:12:45.241Z,7.30
2023-04-11T20:15:13.619Z,7.32
2023-04-11T20:17:43.221Z,7.30
2023-04-11T20:20:13.539Z,7.28
2023-04-11T20:22:44.914Z,7.29
2023-04-11T20:25:13.830Z,7.29
2023-04-11T20:27:43.367Z,7.30
2023-04-11T20:30:12.836Z,7.33
2023-04-11T20:32:42.104Z,7.36
2023-04-11T20:35:14.260Z,7.45
2023-04-11T20:37:45.532Z,7.51
2023-04-11T20:40:17.181Z,7.56
2023-04-11T20:42:49.685Z,7.58
2023-04-11T20:45:21.796Z,7.54
2023-04-11T20:47:50.495Z,7.53
2023-04-11T20:50:19.965Z,7.45
2023-04-11T20:52:52.666Z,7.38
2023-04-11T20:55:21.161Z,7.34
2023-04-11T20:57:49.801Z,7.29
2023-04-11T21:00:19.965Z,7.26
2023-04-11T21:02:53.273Z,7.15
2023-04-11T21:05:25.227Z,6.99
2023-04-11T21:07:56.307Z,6.89
2023-04-11T21:10:25.001Z,6.87
2023-04-11T21:12:54.486Z,6.86
2023-04-11T21:15:23.178Z,6.84
2023-04-11T21:17:52.529Z,6.77
2023-04-11T21:20:22.475Z,6.77
2023-04-11T21:22:55.334Z,6.75
2023-04-11T21:25:24.296Z,6.74
2023-04-11T21:27:52.688Z,6.73
2023-04-11T21:30:21.138Z,6.68
2023-04-11T21:32:49.429Z,6.61
2023-04-11T21:35:17.907Z,6.56
2023-04-11T21:37:48.934Z,6.54
2023-04-11T21:40:17.663Z,6.50
2023-04-11T21:42:46.012Z,6.47
2023-04-11T21:45:14.301Z,6.42
2023-04-11T21:47:42.732Z,6.43
2023-04-11T21:50:11.574Z,6.47
2023-04-11T21:52:39.859Z,6.49
2023-04-11T21:55:09.131Z,6.53
2023-04-11T21:57:37.738Z,6.53
2023-04-11T22:00:08.426Z,6.52
2023-04-11T22:02:43.051Z,6.51
2023-04-11T22:05:12.863Z,6.47
2023-04-11T22:07:47.446Z,6.44
2023-04-11T22:10:23.994Z,6.41
2023-04-11T22:12:54.690Z,6.32
2023-04-11T22:15:24.536Z,6.23
2023-04-11T22:17:54.684Z,6.22
2023-04-11T22:20:23.159Z,6.26
2023-04-11T22:22:51.352Z,6.27
2023-04-11T22:25:22.650Z,6.25
2023-04-11T22:27:54.958Z,6.25
2023-04-11T22:30:24.682Z,6.25
2023-04-11T22:32:54.570Z,6.22
2023-04-11T22:35:26.281Z,6.20
2023-04-11T22:37:59.333Z,6.23
2023-04-11T22:40:27.624Z,6.25
2023-04-11T22:42:55.994Z,6.25
2023-04-11T22:45:24.623Z,6.23
2023-04-11T22:48:00.073Z,6.21
2023-04-11T22:50:28.849Z,6.08
2023-04-11T22:52:57.228Z,6.04
2023-04-11T22:55:25.575Z,6.02
2023-04-11T22:57:53.868Z,5.95
2023-04-11T23:00:24.042Z,5.90
2023-04-11T23:02:52.728Z,5.87
2023-04-11T23:05:21.592Z,5.81
2023-04-11T23:07:50.238Z,5.82
2023-04-11T23:10:19.333Z,5.85
2023-04-11T23:12:48.249Z,5.85
2023-04-11T23:15:17.641Z,5.85
2023-04-11T23:17:46.283Z,5.86
2023-04-11T23:20:15.651Z,5.90
2023-04-11T23:22:44.764Z,5.91
2023-04-11T23:25:15.438Z,5.90
2023-04-11T23:27:44.756Z,5.89
2023-04-11T23:30:17.501Z,5.89
2023-04-11T23:32:46.018Z,5.88
2023-04-11T23:35:17.121Z,5.88
2023-04-11T23:37:46.033Z,5.88
2023-04-11T23:40:14.988Z,5.90
2023-04-11T23:42:43.253Z,5.90
2023-04-11T23:45:12.881Z,5.89
2023-04-11T23:47:41.389Z,5.92
2023-04-11T23:50:10.633Z,5.88
2023-04-11T23:52:39.953Z,5.85
2023-04-11T23:55:08.822Z,5.78
2023-04-11T23:57:37.202Z,5.78
